Flight Track Log - Related Links

Times and Time Zones

All times are in EDT time to prevent confusion due to time zone crossing. See the N465SC flight status page for this flight to view local times or setup timezone preferences in your user account.

Time Position Orientation Groundspeed Altitude Reporting Facility
EDT Latitude Longitude Course Direction KTS MPH feet Rate Location/Type
Fri 10:45:00 AM 26.3789 -100.7647 71° East  Level Estimated
Fri 10:46:00 AM 26.4053 -100.6750 72° East  Level Estimated
Fri 10:47:00 AM 26.4317 -100.5853 72° East  Level Estimated
Fri 10:47:00 AM 27.0808 -100.3439 72° East 444 511 35,000  Level Houston Center
Fri 10:48:00 AM 26.4580 -100.4956 72° East  Level Estimated
Fri 10:48:02 AM 27.1364 -100.2197 63° Northeast 447 514 35,000  Level Houston Center
Fri 10:49:00 AM 26.4843 -100.4058 72° East  Level Estimated
Fri 10:49:04 AM 27.2003 -100.0675 65° Northeast 449 517 35,000  Level Houston Center
Fri 10:50:00 AM 26.5105 -100.3159 72° East  Level Estimated
Fri 10:50:06 AM 27.2547 -99.9425 64° Northeast 448 516 35,000  Level Houston Center
Fri 10:51:00 AM 26.5366 -100.2260 72° East  Level Estimated
Fri 10:51:09 AM 27.3100 -99.8181 63° Northeast 446 513 35,000  Level Houston Center
Fri 10:52:00 AM 26.5627 -100.1361 72° East  Level Estimated
Fri 10:52:11 AM 27.3658 -99.6936 63° Northeast 446 513 35,000  Level Houston Center
Fri 10:53:13 AM 27.4233 -99.5700 62° Northeast 446 513 35,000  Level Houston Center
Fri 10:54:15 AM 27.4803 -99.4458 63° Northeast 446 513 35,000  Level Houston Center
Fri 10:55:17 AM 27.5364 -99.3214 63° Northeast 444 511 35,000  Level Houston Center
Fri 10:56:19 AM 27.6064 -99.1703 62° Northeast 448 516 35,000  Level Houston Center
Fri 10:57:21 AM 27.6650 -99.0428 63° Northeast 449 517 35,000  Level Houston Center
Fri 10:58:23 AM 27.7206 -98.9131 64° Northeast 450 518 35,000  Level Houston Center
Fri 10:59:25 AM 27.7764 -98.7872 63° Northeast 445 512 35,000  Level Houston Center
Fri 11:00:27 AM 27.8328 -98.6608 63° Northeast 446 513 35,000  Level Houston Center
Fri 11:01:29 AM 27.8872 -98.5344 64° Northeast 446 513 35,000  Level Houston Center
Fri 11:02:32 AM 27.9433 -98.4097 63° Northeast 445 512 35,000  Level Houston Center
Fri 11:03:33 AM 28.0111 -98.2592 63° Northeast 447 514 35,000  Level Houston Center
Fri 11:04:35 AM 28.0667 -98.1328 63° Northeast 448 516 35,000  Level Houston Center
Fri 11:05:37 AM 28.1219 -98.0061 64° Northeast 448 516 35,000  Level Houston Center
Fri 11:06:39 AM 28.1767 -97.8783 64° Northeast 450 518 35,000  Level Houston Center
Fri 11:07:42 AM 28.2306 -97.7575 63° Northeast 456 525 35,000  Level Houston Center
Fri 11:08:44 AM 28.2969 -97.6031 64° Northeast 455 524 35,000  Level Houston Center
Fri 11:09:46 AM 28.3517 -97.4756 64° Northeast 453 521 35,000  Level Houston Center
Fri 11:10:48 AM 28.4086 -97.3467 63° Northeast 456 525 35,000  Level Houston Center
Fri 11:11:50 AM 28.4642 -97.2178 64° Northeast 457 526 35,000  Level Houston Center
Fri 11:12:52 AM 28.5200 -97.0875 64° Northeast 459 528 35,000  Level Houston Center
Fri 11:13:54 AM 28.5875 -96.9306 64° Northeast 461 531 35,000  Level Houston Center
Fri 11:14:56 AM 28.6428 -96.8003 64° Northeast 462 532 35,000  Level Houston Center
Fri 11:15:58 AM 28.6989 -96.6692 64° Northeast 463 533 35,000  Level Houston Center
Fri 11:17:00 AM 28.7544 -96.5364 64° Northeast 467 537 35,000  Level Houston Center
Fri 11:18:03 AM 28.8100 -96.4039 64° Northeast 468 539 35,000  Level Houston Center
Fri 11:19:05 AM 28.8778 -96.2447 64° Northeast 469 540 35,000  Level Houston Center
Fri 11:20:07 AM 28.9336 -96.1111 64° Northeast 470 541 35,000  Level Houston Center
Fri 11:21:09 AM 28.9931 -95.9706 64° Northeast 474 545 35,000  Level Houston Center
Fri 11:22:11 AM 29.0481 -95.8358 65° Northeast 470 541 35,000  Level Houston Center
Fri 11:23:13 AM 29.1042 -95.7011 64° Northeast 471 542 35,000  Level Houston Center
Fri 11:24:15 AM 29.1589 -95.5658 65° Northeast 470 541 35,000  Level Houston Center
Fri 11:25:17 AM 29.2264 -95.4031 65° Northeast 474 545 35,000  Level Houston Center
Fri 11:26:19 AM 29.2817 -95.2667 65° Northeast 475 547 35,000  Level Houston Center
Fri 11:27:22 AM 29.3361 -95.1303 65° Northeast 478 550 35,000  Level Houston Center
Fri 11:28:24 AM 29.3925 -94.9939 65° Northeast 480 552 35,000 194 Level Houston Center
Fri 11:29:26 AM 29.4594 -94.8297 65° Northeast 480 552 35,400 532 Climbing Houston Center
Fri 11:30:28 AM 29.5133 -94.6967 65° Northeast 467 537 36,100 581 Climbing Houston Center
Fri 11:31:30 AM 29.5669 -94.5661 65° Northeast 457 526 36,600 339 Climbing Houston Center
Fri 11:32:32 AM 29.6197 -94.4317 66° East 460 529 36,800 290 Climbing Houston Center
Fri 11:33:34 AM 29.6742 -94.2978 65° Northeast 464 534 37,200 532 Climbing Houston Center
Fri 11:34:36 AM 29.7347 -94.1442 66° East 459 528 37,900 677 Climbing Houston Center
Fri 11:35:38 AM 29.7875 -94.0128 65° Northeast 454 522 38,600 532 Climbing Houston Center
Fri 11:36:40 AM 29.8383 -93.8831 66° East 448 516 39,000 192 Climbing Houston Center
Fri 11:37:43 AM 29.8906 -93.7508 65° Northeast 454 522 39,000  Level Houston Center
Fri 11:38:45 AM 29.9544 -93.5881 66° East 465 535 39,000  Level Houston Center
Fri 11:39:47 AM 30.0031 -93.4481 68° East 474 545 39,000  Level Houston Center
Fri 11:40:49 AM 30.0258 -93.2953 80° East 486 559 39,000  Level Houston Center
Fri 11:41:51 AM 30.0494 -93.1425 80° East 490 564 39,000  Level Houston Center
Fri 11:42:53 AM 30.0744 -92.9883 79° East 492 566 39,000  Level Houston Center
Fri 11:43:55 AM 30.1036 -92.8047 80° East 488 562 39,000  Level Houston Center
Fri 11:44:57 AM 30.1283 -92.6492 80° East 493 567 39,000  Level Houston Center
Fri 11:45:59 AM 30.1533 -92.4911 80° East 491 565 39,000  Level Houston Center
Fri 11:47:01 AM 30.1772 -92.3397 80° East 492 566 39,000  Level Houston Center
Fri 11:48:04 AM 30.2008 -92.1836 80° East 494 568 39,000  Level Houston Center
Fri 11:49:06 AM 30.2281 -92.0031 80° East 490 564 39,000  Level Houston Center
Fri 11:50:08 AM 30.2525 -91.8497 80° East 489 563 39,000  Level Houston Center
Fri 11:51:10 AM 30.2769 -91.6872 80° East 486 559 39,000  Level Houston Center
Fri 11:52:12 AM 30.2992 -91.5333 80° East 487 560 39,000  Level Houston Center
Fri 11:53:14 AM 30.3217 -91.3797 80° East 486 559 39,000  Level Houston Center
Fri 11:54:16 AM 30.3458 -91.2258 80° East 487 560 39,000  Level Houston Center
Fri 11:55:18 AM 30.3672 -91.0728 81° East 481 554 39,000  Level Houston Center
Fri 11:56:20 AM 30.3933 -90.8883 81° East 483 556 39,000  Level Houston Center
Fri 11:57:23 AM 30.4156 -90.7356 80° East 483 556 39,000  Level Houston Center
Fri 11:58:25 AM 30.4375 -90.5817 81° East 484 557 39,000  Level Houston Center
Fri 11:59:27 AM 30.4586 -90.4275 81° East 485 558 39,000  Level Houston Center
Fri 12:00:29 PM 30.4800 -90.2747 81° East 482 555 39,000  Level Houston Center
Fri 12:01:31 PM 30.5006 -90.1206 81° East 481 554 39,000  Level Houston Center
Fri 12:02:33 PM 30.5269 -89.9350 81° East 480 552 39,000  Level Houston Center
Fri 12:03:35 PM 30.5483 -89.7778 81° East 484 557 39,000  Level Houston Center
Fri 12:05:39 PM 30.5889 -89.4653 81° East 485 558 39,000  Level Houston Center
Fri 12:06:42 PM 30.6089 -89.3108 81° East 485 558 39,000  Level Houston Center
Fri 12:07:44 PM 30.6269 -89.1542 82° East 489 563 39,000  Level Houston Center
Fri 12:08:46 PM 30.6461 -88.9994 82° East 485 558 39,000  Level Houston Center
Fri 12:09:48 PM 30.6664 -88.8308 82° East 486 559 39,000  Level Houston Center
Fri 12:10:50 PM 30.6858 -88.6756 82° East 489 563 39,000  Level Houston Center
Fri 12:11:52 PM 30.7081 -88.4992 82° East 492 566 39,000  Level Houston Center
Fri 12:12:54 PM 30.7272 -88.3433 82° East 490 564 39,000  Level Houston Center
Fri 12:13:56 PM 30.7378 -88.1844 86° East 494 568 39,000  Level Houston Center
Fri 12:14:58 PM 30.7458 -88.0253 87° East 494 568 39,000  Level Houston Center
Fri 12:16:01 PM 30.7603 -87.8344 85° East 494 568 39,000  Level Houston Center
Fri 12:17:03 PM 30.7697 -87.6725 86° East 494 568 39,000  Level Houston Center
Fri 12:17:55 PM 30.7744 -87.5467 87° East 496 571 39,000  Level Jacksonville Center
Fri 12:18:55 PM 30.7864 -87.3875 85° East 496 571 39,000  Level Jacksonville Center
Fri 12:19:55 PM 30.7961 -87.2261 86° East 496 571 39,000  Level Jacksonville Center
Fri 12:20:55 PM 30.8078 -87.0647 85° East 496 571 39,000  Level Jacksonville Center
Fri 12:21:55 PM 30.8150 -86.9028 87° East 496 571 39,000  Level Jacksonville Center
Fri 12:22:55 PM 30.8242 -86.7436 86° East 496 571 39,000  Level Jacksonville Center
Fri 12:23:55 PM 30.8289 -86.5867 88° East 496 571 39,000  Level Jacksonville Center
Fri 12:24:55 PM 30.8208 -86.4292 93° East 496 571 39,000  Level Jacksonville Center
Fri 12:25:55 PM 30.8167 -86.2692 92° East 496 571 39,000 -50 Level Jacksonville Center
Fri 12:26:54 PM 30.8147 -86.1094 91° East 496 571 38,900 -555 Descending Jacksonville Center
Fri 12:27:54 PM 30.8103 -85.9522 92° East 496 571 37,900 -942 Descending Jacksonville Center
Fri 12:28:55 PM 30.8078 -85.7900 91° East 496 571 37,000 -793 Descending Jacksonville Center
Fri 12:29:55 PM 30.8050 -85.6231 91° East 501 577 36,300 -700 Descending Jacksonville Center
Fri 12:30:55 PM 30.8022 -85.4586 91° East 501 577 35,600 -800 Descending Jacksonville Center
Fri 12:31:55 PM 30.7992 -85.2942 91° East 501 577 34,700 -900 Descending Jacksonville Center
Fri 12:32:55 PM 30.7897 -85.1319 94° East 501 577 33,800 -850 Descending Jacksonville Center
Fri 12:33:55 PM 30.7422 -84.9833 110° East 487 560 33,000 -450 Descending Jacksonville Center
Fri 12:34:55 PM 30.6733 -84.8464 120° Southeast 487 560 32,900 -700 Descending Jacksonville Center
Fri 12:35:55 PM 30.5981 -84.7100 123° Southeast 487 560 31,600 -1,300 Descending Jacksonville Center
Fri 12:36:55 PM 30.5183 -84.5806 126° Southeast 493 567 30,300 -1,200 Descending Jacksonville Center
Fri 12:37:55 PM 30.4956 -84.4089 99° East 477 549 29,200 -1,450 Descending Jacksonville Center
Fri 12:38:55 PM 30.5036 -84.2475 87° East 482 555 27,400 -1,650 Descending Jacksonville Center
Fri 12:39:55 PM 30.5133 -84.0983 86° East 476 548 25,900 -1,650 Descending Jacksonville Center
Fri 12:40:55 PM 30.5211 -83.9489 87° East 469 540 24,100 -958 Descending Jacksonville Center
Fri 12:41:54 PM 30.5242 -83.8089 89° East 457 526 24,000 -50 Descending Jacksonville Center
Fri 12:42:54 PM 30.5292 -83.6739 88° East 429 494 24,000  Level Jacksonville Center
Fri 12:43:55 PM 30.5383 -83.5367 86° East 422 486 24,000 -100 Level Jacksonville Center
Fri 12:44:54 PM 30.5350 -83.3942 92° East 422 486 23,800 -950 Descending Jacksonville Center
Fri 12:45:55 PM 30.5269 -83.2567 94° East 427 491 22,100 -1,835 Descending Jacksonville Center
Fri 12:46:55 PM 30.5253 -83.1192 91° East 427 491 20,100 -1,900 Descending Jacksonville Center
Fri 12:47:55 PM 30.5211 -82.9914 92° East 414 476 18,300 -1,850 Descending Jacksonville Center
Fri 12:48:55 PM 30.5169 -82.8636 92° East 404 465 16,400 -1,850 Descending Jacksonville Center
Fri 12:49:55 PM 30.5128 -82.7383 92° East 393 452 14,600 -1,900 Descending Jacksonville Center
Fri 12:50:55 PM 30.5083 -82.6200 92° East 377 434 12,600 -1,875 Descending Jacksonville Center
Fri 12:51:47 PM 30.5167 -82.5261 84° East 359 413 11,100 -897 Descending Jacksonville Center
Fri 12:52:42 PM 30.5433 -82.4319 72° East 326 375 11,000 -52 Descending Jacksonville Center
Fri 12:53:43 PM 30.5472 -82.3281 87° East 313 360 11,000 -516 Level Jacksonville Center
Fri 12:54:50 PM 30.5486 -82.2147 89° East 309 356 9,900 -1,323 Descending Jacksonville Center
Fri 12:55:50 PM 30.5503 -82.1133 89° East 307 353 8,200 -1,440 Descending Jacksonville Center
Fri 12:56:55 PM 30.5494 -82.0194 91° East 305 351 6,900 -1,328 Descending Jacksonville Center
Fri 12:57:52 PM 30.5508 -81.9181 89° East 268 308 5,500 -1,322 Descending Jacksonville Center
Fri 12:58:53 PM 30.5567 -81.8383 85° East 236 272 4,300 -738 Descending Jacksonville Center
Fri 12:59:54 PM 30.5603 -81.7756 86° East 177 204 4,000 -310 Descending Jacksonville Center
Fri 01:00:49 PM 30.5619 -81.7275 88° East 165 190 3,700 -938 Descending Jacksonville Center
Fri 01:02:02 PM 30.5569 -81.6647 95° East 148 170 2,000 -1,209 Descending Jacksonville Center
Fri 01:03:03 PM 30.5256 -81.6433 150° Southeast 119 137 1,000 -983 Descending Jacksonville Center
Fri 01:03:58 PM 30.5069 -81.6703 231° Southwest 144 166 100 -982 Descending Jacksonville Center
Fri 01:05:00 PM 30.4941 -81.6879 140° Southeast  Level Estimated
Fri 01:12:00 PM 30.4941 -81.6879 311° West  Level Estimated

Login

Don't have an account? Register now (free) for customized features, flight alerts, and more!